Date,TemperatureHighF,TemperatureAvgF,TemperatureLowF,DewpointHighF,DewpointAvgF,DewpointLowF,HumidityHigh,HumidityAvg,HumidityLow,PressureMaxIn,PressureMinIn,WindSpeedMaxMPH,WindSpeedAvgMPH,GustSpeedMaxMPH,PrecipitationSumIn
2013-2-1,34.3,29.2,22.8,-0.2,-3.5,-9.2,25,23,21,30.27,29.80,8,3,15,0.00
2013-2-2,31.3,25.1,18.3,-2.1,-6.7,-11.9,25,23,22,30.45,30.21,6,2,10,0.00
2013-2-3,28.6,25.9,23.2,6.6,2.6,-5.8,43,36,23,30.27,29.92,4,0,7,0.00
2013-2-4,30.9,24.7,20.5,5.5,-2.3,-8.2,44,30,23,30.12,29.92,10,3,18,0.00
2013-2-5,30.9,25.8,21.2,7.5,-3.6,-8.2,43,27,23,30.24,30.12,6,1,10,0.00
2013-2-6,38.1,30.2,25.5,12.2,4.9,-5.6,48,35,23,30.48,30.09,6,2,12,0.05
2013-2-7,30.2,24.6,17.6,-2.8,-6.3,-10.8,26,24,23,30.71,30.48,5,1,10,0.00
2013-2-8,33.1,30.0,18.9,27.6,15.0,-4.6,91,56,23,30.69,29.80,11,4,19,0.00
2013-2-9,24.8,18.8,12.7,14.7,3.7,-8.7,76,53,35,30.39,29.74,7,2,13,0.00
2013-2-10,35.1,20.9,5.5,6.7,-3.4,-14.5,38,33,25,30.60,30.39,4,1,8,0.00
2013-2-11,40.6,30.8,19.6,35.0,18.2,-2.7,86,61,36,30.54,29.80,4,1,7,0.00
2013-2-12,40.6,36.7,33.4,34.5,17.3,10.3,86,47,31,30.06,29.80,11,3,19,0.00
2013-2-13,41.2,34.1,27.3,13.9,9.7,6.5,45,36,28,30.06,29.92,5,1,8,0.00
2013-2-14,41.4,35.0,29.1,14.4,7.8,4.2,46,32,23,30.21,29.92,5,1,8,0.00
2013-2-15,47.5,38.0,30.7,19.1,13.5,5.0,52,37,27,30.21,30.09,7,1,13,0.00
2013-2-16,38.7,34.7,31.3,20.4,13.4,4.1,57,42,30,30.15,29.92,4,0,7,0.04
2013-2-17,32.0,22.9,17.6,4.1,-2.1,-10.8,47,33,25,29.92,29.56,9,3,20,0.00
2013-2-18,30.6,22.1,14.5,-2.5,-7.8,-12.6,26,25,23,30.36,29.86,9,4,20,0.00
2013-2-19,45.5,34.9,21.7,33.2,8.5,-7.7,76,35,22,30.39,29.80,5,1,6,0.00
2013-2-20,40.3,32.8,26.2,33.3,8.2,-4.8,77,38,23,29.98,29.74,9,4,19,0.00
2013-2-21,33.3,27.5,24.1,-0.4,-2.3,-4.7,32,27,23,30.39,29.98,7,3,15,0.00
2013-2-22,38.8,31.3,22.8,8.1,3.8,-1.0,37,31,24,30.60,30.39,6,1,9,0.00
2013-2-23,38.5,34.9,31.1,23.8,14.3,6.5,64,43,32,30.54,30.15,7,2,10,0.00
2013-2-24,38.5,35.0,32.5,32.2,27.5,22.7,79,74,63,30.15,29.92,4,1,9,0.00
2013-2-25,39.4,35.0,31.1,25.5,19.7,12.7,75,55,35,30.48,30.09,4,0,7,0.00
2013-2-26,42.3,35.9,29.7,25.7,16.2,10.1,68,46,29,30.54,30.39,6,2,10,0.00
2013-2-27,42.8,40.8,37.6,38.7,33.4,15.5,86,76,40,30.39,29.74,14,4,25,0.25
2013-2-28,45.9,40.1,36.5,38.2,28.0,17.8,86,64,35,29.89,29.74,4,1,6,0.00